Time;durP1;ratioP1;P1;durP2;ratioP2;P2;SDS_P1;SDS_P2;PMS_P1;PMS_P2;Temp;Humidity;BMP_temperature;BMP_pressure;BME280_temperature;BME280_humidity;BME280_pressure;Samples;Min_cycle;Max_cycle;Signal;HPM_P1;HPM_P2
2023/06/11 00:00:46;;;;;;;7.20;6.10;;;16.50;84.40;;;;;;4855123;28;20385;-84
2023/06/11 00:26:05;;;;;;;12.47;5.97;;;15.90;83.80;;;;;;4794857;28;20786;-83
2023/06/11 01:36:59;;;;;;;8.50;4.23;;;14.90;81.60;;;;;;4757955;29;20266;-83
2023/06/11 02:02:31;;;;;;;4.73;3.57;;;14.60;81.00;;;;;;4811005;28;20771;-84
2023/06/11 02:38:01;;;;;;;4.57;3.20;;;14.30;81.30;;;;;;4737399;29;20629;-84
2023/06/11 03:03:28;;;;;;;5.30;3.40;;;14.40;80.40;;;;;;4771603;29;20203;-82
2023/06/11 03:07:55;;;;;;;5.10;3.27;;;14.30;80.40;;;;;;4668289;29;20592;-85
2023/06/11 03:43:18;;;;;;;3.80;3.50;;;14.20;80.90;;;;;;4675953;29;20613;-83
2023/06/11 04:03:35;;;;;;;4.50;3.70;;;14.30;80.80;;;;;;4649196;29;21318;-82
2023/06/11 04:29:41;;;;;;;4.50;3.57;;;14.70;80.90;;;;;;4688231;29;20544;-85
2023/06/11 05:19:53;;;;;;;5.27;3.80;;;16.10;78.10;;;;;;4598757;29;21097;-82
2023/06/11 05:50:48;;;;;;;4.73;3.20;;;17.40;75.60;;;;;;4789418;28;20196;-82
2023/06/11 06:21:06;;;;;;;4.10;3.00;;;18.10;69.60;;;;;;4781026;29;20225;-84
2023/06/11 06:51:37;;;;;;;4.23;2.80;;;19.20;62.10;;;;;;4659847;29;20200;-84
2023/06/11 07:11:30;;;;;;;3.23;2.90;;;19.60;56.50;;;;;;4659511;29;21083;-84
2023/06/11 07:42:14;;;;;;;2.80;2.60;;;19.60;54.00;;;;;;4753790;28;20223;-84
2023/06/11 08:02:18;;;;;;;4.67;3.00;;;20.10;49.90;;;;;;4725884;28;20220;-82
2023/06/11 08:27:57;;;;;;;5.07;3.00;;;20.30;50.10;;;;;;4795819;28;20328;-85
2023/06/11 09:18:32;;;;;;;4.38;2.40;;;21.20;50.00;;;;;;4834268;28;20818;-82
2023/06/11 09:54:13;;;;;;;4.97;3.03;;;20.90;46.70;;;;;;4876407;28;20274;-80
2023/06/11 09:58:32;;;;;;;2.97;2.78;;;21.20;46.80;;;;;;4773376;28;20655;-81
2023/06/11 10:19:07;;;;;;;3.58;2.28;;;21.20;46.30;;;;;;4836526;28;20676;-83
2023/06/11 11:35:01;;;;;;;3.80;3.40;;;22.10;45.10;;;;;;5923777;23;20560;-81
2023/06/11 11:55:32;;;;;;;4.03;3.00;;;21.90;46.00;;;;;;5843540;23;20542;-86
2023/06/11 12:46:20;;;;;;;3.53;3.22;;;22.90;44.30;;;;;;5621475;24;20577;-85
2023/06/11 13:16:45;;;;;;;4.57;3.25;;;23.60;43.20;;;;;;5655631;24;20531;-82
2023/06/11 13:47:10;;;;;;;3.95;3.45;;;23.90;44.00;;;;;;5679317;24;20328;-82
2023/06/11 14:07:30;;;;;;;3.78;3.40;;;23.40;44.70;;;;;;5800230;23;20637;-81
2023/06/11 14:37:48;;;;;;;3.97;3.33;;;25.70;43.40;;;;;;5638622;24;20552;-83
2023/06/11 15:08:23;;;;;;;3.92;2.90;;;28.10;42.40;;;;;;5744326;24;20333;-85
2023/06/11 15:33:37;;;;;;;3.72;3.42;;;22.10;45.20;;;;;;5678332;24;20239;-84
2023/06/11 17:04:32;;;;;;;3.92;2.78;;;21.60;47.40;;;;;;5585553;24;20198;-83
2023/06/11 17:20:20;;;;;;;4.37;3.27;;;21.60;46.10;;;;;;5542364;24;20196;-81
2023/06/11 18:05:42;;;;;;;3.77;3.47;;;20.70;48.60;;;;;;5715258;24;20187;-85
2023/06/11 18:36:11;;;;;;;5.27;3.70;;;20.00;51.30;;;;;;5867445;23;20177;-86
2023/06/11 18:56:16;;;;;;;6.33;4.00;;;19.60;54.70;;;;;;5786743;24;20191;-82
2023/06/11 19:26:28;;;;;;;6.20;4.90;;;18.30;77.80;;;;;;5784706;23;20628;-84
2023/06/11 20:47:35;;;;;;;17.87;13.10;;;15.20;91.00;;;;;;5684518;24;20611;-82
2023/06/11 21:03:22;;;;;;;37.17;29.10;;;15.00;92.10;;;;;;5730229;24;20708;-83
2023/06/11 21:33:12;;;;;;;37.23;26.27;;;14.60;93.50;;;;;;5589225;24;21187;-83
2023/06/11 21:49:24;;;;;;;24.17;16.93;;;14.60;94.40;;;;;;5661062;24;20197;-85
2023/06/11 22:34:41;;;;;;;31.83;21.37;;;13.50;99.90;;;;;;5727078;24;20719;-82
2023/06/11 23:10:18;;;;;;;11.43;9.40;;;13.10;99.90;;;;;;5788835;24;20604;-81
2023/06/11 23:14:37;;;;;;;9.33;8.37;;;13.10;99.90;;;;;;5655090;24;20449;-85
2023/06/11 23:35:29;;;;;;;11.23;10.00;;;13.60;99.90;;;;;;5591767;24;20277;-83
